Flight Track Log - Related Links

Times and Time Zones

All times are in EDT time to prevent confusion due to time zone crossing. See the N3TN flight status page for this flight to view local times or setup timezone preferences in your user account.

Time Position Orientation Groundspeed Altitude Reporting Facility
EDT Latitude Longitude Course Direction KTS MPH feet Rate Location/Type
Mon 03:54:04 PM 44.4728 -73.2072 259° West 83 96 2,400  Level Boston Center
Mon 03:55:06 PM 44.4631 -73.2383 246° West 87 100 3,000 341 Climbing Boston Center
Mon 03:56:07 PM 44.4536 -73.2772 251° West 102 117 3,100 49 Climbing Boston Center
Mon 03:57:09 PM 44.4422 -73.3206 250° West 107 123 3,100 -49 Level Boston Center
Mon 03:58:00 PM 44.4667 -73.1500 136° Southeast  Level FlightAware Approximate
Mon 03:58:10 PM 44.4519 -73.3544 292° West 100 115 3,000  Level Boston Center
Mon 03:59:00 PM 44.4719 -73.1533 259° West  Level Estimated
Mon 03:59:11 PM 44.4764 -73.3669 340° North 99 114 3,000  Level Boston Center
Mon 04:00:13 PM 44.5017 -73.3825 336° Northwest 96 110 3,100 -195 Climbing Boston Center
Mon 04:01:14 PM 44.5211 -73.3925 340° North 86 99 2,600 -439 Descending Boston Center
Mon 04:02:16 PM 44.5394 -73.4050 334° Northwest 78 90 2,200 -390 Descending Boston Center
Mon 04:03:17 PM 44.5631 -73.4172 340° North 76 87 1,800 -390 Descending Boston Center
Mon 04:04:19 PM 44.5817 -73.4281 337° Northwest 75 86 1,400 -390 Descending Boston Center
Mon 04:05:20 PM 44.6006 -73.4392 337° Northwest 75 86 1,000 -393 Descending Boston Center
Mon 04:06:21 PM 44.6183 -73.4503 336° Northwest 72 83 600 -341 Descending Boston Center
Mon 04:07:23 PM 44.6378 -73.4608 339° North 71 82 300 -290 Descending Boston Center
Mon 04:09:00 PM 44.6772 -73.4429 32° Northeast  Level FlightAware Approximate
Mon 04:16:00 PM 44.7235 -73.3073 153° Southeast  Level FlightAware Approximate
Mon 04:17:00 PM 44.6991 -73.2898 153° Southeast  Level FlightAware Approximate
Mon 04:18:00 PM 44.6746 -73.2723 153° Southeast  Level FlightAware Approximate
Mon 04:19:00 PM 44.6540 -73.2857 227° Southwest  Level FlightAware Approximate
Mon 04:20:00 PM 44.6352 -73.3139 227° Southwest  Level FlightAware Approximate
Mon 04:21:00 PM 44.6165 -73.3420 227° Southwest  Level FlightAware Approximate
Mon 04:22:00 PM 44.5977 -73.3632 133° Southeast  Level FlightAware Approximate
Mon 04:23:00 PM 44.5790 -73.3351 133° Southeast  Level FlightAware Approximate
Mon 04:24:00 PM 44.5602 -73.3070 133° Southeast  Level FlightAware Approximate
Mon 04:25:00 PM 44.5415 -73.2788 133° Southeast  Level FlightAware Approximate
Mon 04:26:00 PM 44.5267 -73.2469 115° Southeast  Level FlightAware Approximate
Mon 04:27:00 PM 44.5140 -73.2132 136° Southeast  Level FlightAware Approximate
Mon 04:28:00 PM 44.4941 -73.1866 136° Southeast  Level FlightAware Approximate
Mon 04:29:00 PM 44.4743 -73.1601 136° Southeast  Level FlightAware Approximate
Mon 04:30:00 PM 44.4667 -73.1500 136° Southeast  Level FlightAware Approximate
Mon 04:31:00 PM 44.4719 -73.1533 259° West  Level Estimated
Mon 04:32:00 PM 44.4719 -73.1533 255° West  Level Estimated
Mon 04:33:00 PM 44.4719 -73.1533 255° West  Level Estimated

Login

Don't have an account? Register now (free) for customized features, flight alerts, and more!